sensor_id;sensor_type;location;lat;lon;timestamp;P1;durP1;ratioP1;P2;durP2;ratioP2
52674;SDS011;38569;52.722;6.440;2023-02-11T00:00:31;26.67;;;9.50;;
52674;SDS011;38569;52.722;6.440;2023-02-11T00:02:57;23.10;;;9.48;;
52674;SDS011;38569;52.722;6.440;2023-02-11T00:05:22;25.27;;;9.88;;
52674;SDS011;38569;52.722;6.440;2023-02-11T00:07:48;28.73;;;9.85;;
52674;SDS011;38569;52.722;6.440;2023-02-11T00:10:14;22.90;;;7.93;;
52674;SDS011;38569;52.722;6.440;2023-02-11T00:12:39;16.38;;;7.63;;
52674;SDS011;38569;52.722;6.440;2023-02-11T00:15:07;19.60;;;7.60;;
52674;SDS011;38569;52.722;6.440;2023-02-11T00:17:34;30.48;;;9.00;;
52674;SDS011;38569;52.722;6.440;2023-02-11T00:19:59;21.48;;;8.48;;
52674;SDS011;38569;52.722;6.440;2023-02-11T00:22:25;29.65;;;8.95;;
52674;SDS011;38569;52.722;6.440;2023-02-11T00:24:52;24.30;;;8.38;;
52674;SDS011;38569;52.722;6.440;2023-02-11T00:27:18;20.30;;;7.63;;
52674;SDS011;38569;52.722;6.440;2023-02-11T00:29:43;31.48;;;9.75;;
52674;SDS011;38569;52.722;6.440;2023-02-11T00:32:09;28.70;;;9.77;;
52674;SDS011;38569;52.722;6.440;2023-02-11T00:34:35;23.95;;;8.65;;
52674;SDS011;38569;52.722;6.440;2023-02-11T00:37:02;30.92;;;8.73;;
52674;SDS011;38569;52.722;6.440;2023-02-11T00:39:29;25.33;;;8.02;;
52674;SDS011;38569;52.722;6.440;2023-02-11T00:41:55;32.47;;;8.82;;
52674;SDS011;38569;52.722;6.440;2023-02-11T00:44:21;32.10;;;8.07;;
52674;SDS011;38569;52.722;6.440;2023-02-11T00:46:47;27.90;;;8.27;;
52674;SDS011;38569;52.722;6.440;2023-02-11T00:49:12;27.00;;;7.75;;
52674;SDS011;38569;52.722;6.440;2023-02-11T00:51:38;25.23;;;7.50;;
52674;SDS011;38569;52.722;6.440;2023-02-11T00:54:04;27.25;;;7.32;;
52674;SDS011;38569;52.722;6.440;2023-02-11T00:56:30;21.85;;;6.53;;
52674;SDS011;38569;52.722;6.440;2023-02-11T00:58:56;23.42;;;7.57;;
52674;SDS011;38569;52.722;6.440;2023-02-11T01:01:22;30.40;;;7.82;;
52674;SDS011;38569;52.722;6.440;2023-02-11T01:03:48;22.02;;;7.32;;
52674;SDS011;38569;52.722;6.440;2023-02-11T01:06:14;22.88;;;7.75;;
52674;SDS011;38569;52.722;6.440;2023-02-11T01:08:40;21.42;;;7.05;;
52674;SDS011;38569;52.722;6.440;2023-02-11T01:11:07;24.20;;;7.15;;
52674;SDS011;38569;52.722;6.440;2023-02-11T01:13:37;21.80;;;7.30;;
52674;SDS011;38569;52.722;6.440;2023-02-11T01:16:03;27.60;;;7.38;;
52674;SDS011;38569;52.722;6.440;2023-02-11T01:18:32;20.02;;;6.00;;
52674;SDS011;38569;52.722;6.440;2023-02-11T01:20:58;22.55;;;6.72;;
52674;SDS011;38569;52.722;6.440;2023-02-11T01:23:24;22.67;;;6.45;;
52674;SDS011;38569;52.722;6.440;2023-02-11T01:25:50;22.67;;;6.18;;
52674;SDS011;38569;52.722;6.440;2023-02-11T01:28:16;17.67;;;7.50;;
52674;SDS011;38569;52.722;6.440;2023-02-11T01:30:43;26.80;;;7.63;;
52674;SDS011;38569;52.722;6.440;2023-02-11T01:33:10;22.50;;;6.97;;
52674;SDS011;38569;52.722;6.440;2023-02-11T01:35:37;20.20;;;6.93;;
52674;SDS011;38569;52.722;6.440;2023-02-11T01:38:03;23.23;;;6.72;;
52674;SDS011;38569;52.722;6.440;2023-02-11T01:40:30;19.25;;;6.07;;
52674;SDS011;38569;52.722;6.440;2023-02-11T01:42:56;24.95;;;8.18;;
52674;SDS011;38569;52.722;6.440;2023-02-11T01:48:31;21.42;;;6.78;;
52674;SDS011;38569;52.722;6.440;2023-02-11T01:51:03;21.60;;;6.15;;
52674;SDS011;38569;52.722;6.440;2023-02-11T01:53:37;32.45;;;8.10;;
52674;SDS011;38569;52.722;6.440;2023-02-11T01:56:23;20.45;;;7.20;;
52674;SDS011;38569;52.722;6.440;2023-02-11T01:59:11;23.60;;;6.32;;
52674;SDS011;38569;52.722;6.440;2023-02-11T02:01:52;33.75;;;8.82;;
52674;SDS011;38569;52.722;6.440;2023-02-11T02:04:22;30.88;;;7.72;;
52674;SDS011;38569;52.722;6.440;2023-02-11T02:06:59;19.58;;;7.15;;
52674;SDS011;38569;52.722;6.440;2023-02-11T02:09:50;24.27;;;6.68;;
52674;SDS011;38569;52.722;6.440;2023-02-11T02:12:22;25.40;;;7.72;;
52674;SDS011;38569;52.722;6.440;2023-02-11T02:14:48;33.88;;;10.57;;
52674;SDS011;38569;52.722;6.440;2023-02-11T02:17:21;21.13;;;7.30;;
52674;SDS011;38569;52.722;6.440;2023-02-11T02:20:02;23.38;;;7.38;;
52674;SDS011;38569;52.722;6.440;2023-02-11T02:25:43;20.02;;;8.15;;
52674;SDS011;38569;52.722;6.440;2023-02-11T02:31:13;26.25;;;8.02;;
52674;SDS011;38569;52.722;6.440;2023-02-11T02:33:52;34.70;;;9.82;;
52674;SDS011;38569;52.722;6.440;2023-02-11T02:39:19;27.55;;;8.30;;
52674;SDS011;38569;52.722;6.440;2023-02-11T02:41:49;21.05;;;9.00;;
52674;SDS011;38569;52.722;6.440;2023-02-11T02:44:17;29.33;;;8.65;;
52674;SDS011;38569;52.722;6.440;2023-02-11T02:46:44;27.35;;;9.02;;
52674;SDS011;38569;52.722;6.440;2023-02-11T02:49:14;24.23;;;9.63;;
52674;SDS011;38569;52.722;6.440;2023-02-11T02:54:28;29.55;;;8.85;;
52674;SDS011;38569;52.722;6.440;2023-02-11T03:02:51;27.08;;;8.98;;
52674;SDS011;38569;52.722;6.440;2023-02-11T03:06:00;24.20;;;9.88;;
52674;SDS011;38569;52.722;6.440;2023-02-11T03:11:04;31.02;;;10.95;;
52674;SDS011;38569;52.722;6.440;2023-02-11T03:13:32;29.10;;;11.20;;
52674;SDS011;38569;52.722;6.440;2023-02-11T03:16:06;32.53;;;10.63;;
52674;SDS011;38569;52.722;6.440;2023-02-11T03:18:36;31.63;;;11.40;;
52674;SDS011;38569;52.722;6.440;2023-02-11T03:21:05;32.03;;;11.90;;
52674;SDS011;38569;52.722;6.440;2023-02-11T03:26:02;24.67;;;11.35;;
52674;SDS011;38569;52.722;6.440;2023-02-11T03:28:50;41.00;;;12.43;;
52674;SDS011;38569;52.722;6.440;2023-02-11T03:31:22;27.48;;;11.50;;
52674;SDS011;38569;52.722;6.440;2023-02-11T03:36:42;29.42;;;12.85;;
52674;SDS011;38569;52.722;6.440;2023-02-11T03:39:13;31.10;;;12.75;;
52674;SDS011;38569;52.722;6.440;2023-02-11T03:41:43;32.58;;;13.18;;
52674;SDS011;38569;52.722;6.440;2023-02-11T03:44:11;33.30;;;13.63;;
52674;SDS011;38569;52.722;6.440;2023-02-11T03:46:40;42.50;;;15.07;;
52674;SDS011;38569;52.722;6.440;2023-02-11T03:49:09;34.63;;;14.65;;
52674;SDS011;38569;52.722;6.440;2023-02-11T03:51:37;31.27;;;15.18;;
52674;SDS011;38569;52.722;6.440;2023-02-11T03:54:13;33.05;;;14.63;;
52674;SDS011;38569;52.722;6.440;2023-02-11T03:56:51;34.50;;;13.98;;
52674;SDS011;38569;52.722;6.440;2023-02-11T03:59:19;35.33;;;17.02;;
52674;SDS011;38569;52.722;6.440;2023-02-11T04:01:45;30.45;;;15.25;;
52674;SDS011;38569;52.722;6.440;2023-02-11T04:04:12;36.45;;;15.50;;
52674;SDS011;38569;52.722;6.440;2023-02-11T04:06:38;32.58;;;15.25;;
52674;SDS011;38569;52.722;6.440;2023-02-11T04:09:04;31.08;;;15.57;;
52674;SDS011;38569;52.722;6.440;2023-02-11T04:11:30;36.75;;;17.50;;
52674;SDS011;38569;52.722;6.440;2023-02-11T04:13:55;35.20;;;17.42;;
52674;SDS011;38569;52.722;6.440;2023-02-11T04:16:21;34.67;;;16.65;;
52674;SDS011;38569;52.722;6.440;2023-02-11T04:18:47;45.53;;;18.27;;
52674;SDS011;38569;52.722;6.440;2023-02-11T04:21:13;30.73;;;14.93;;
52674;SDS011;38569;52.722;6.440;2023-02-11T04:23:38;38.95;;;17.50;;
52674;SDS011;38569;52.722;6.440;2023-02-11T04:26:04;41.53;;;18.70;;
52674;SDS011;38569;52.722;6.440;2023-02-11T04:28:30;33.75;;;17.17;;
52674;SDS011;38569;52.722;6.440;2023-02-11T04:30:56;37.47;;;18.80;;
52674;SDS011;38569;52.722;6.440;2023-02-11T04:33:22;40.00;;;18.73;;
52674;SDS011;38569;52.722;6.440;2023-02-11T04:35:48;37.78;;;17.60;;
52674;SDS011;38569;52.722;6.440;2023-02-11T04:38:14;38.70;;;19.42;;
52674;SDS011;38569;52.722;6.440;2023-02-11T04:40:40;38.00;;;19.52;;
52674;SDS011;38569;52.722;6.440;2023-02-11T04:43:06;38.55;;;18.75;;
52674;SDS011;38569;52.722;6.440;2023-02-11T04:45:32;43.25;;;19.83;;
52674;SDS011;38569;52.722;6.440;2023-02-11T04:47:58;38.90;;;18.92;;
52674;SDS011;38569;52.722;6.440;2023-02-11T04:50:25;49.83;;;20.15;;
52674;SDS011;38569;52.722;6.440;2023-02-11T04:52:51;49.40;;;20.45;;
52674;SDS011;38569;52.722;6.440;2023-02-11T04:55:16;39.83;;;19.67;;
52674;SDS011;38569;52.722;6.440;2023-02-11T04:57:42;38.30;;;20.85;;
52674;SDS011;38569;52.722;6.440;2023-02-11T05:00:08;44.30;;;21.40;;
52674;SDS011;38569;52.722;6.440;2023-02-11T05:02:34;36.70;;;18.50;;
52674;SDS011;38569;52.722;6.440;2023-02-11T05:05:00;49.08;;;23.60;;
52674;SDS011;38569;52.722;6.440;2023-02-11T05:07:26;44.40;;;20.77;;
52674;SDS011;38569;52.722;6.440;2023-02-11T05:09:52;49.25;;;21.77;;
52674;SDS011;38569;52.722;6.440;2023-02-11T05:12:18;37.10;;;18.80;;
52674;SDS011;38569;52.722;6.440;2023-02-11T05:14:43;43.55;;;21.45;;
52674;SDS011;38569;52.722;6.440;2023-02-11T05:17:09;45.45;;;21.85;;
52674;SDS011;38569;52.722;6.440;2023-02-11T05:19:35;46.88;;;22.70;;
52674;SDS011;38569;52.722;6.440;2023-02-11T05:22:01;44.22;;;22.90;;
52674;SDS011;38569;52.722;6.440;2023-02-11T05:24:26;44.28;;;22.73;;
52674;SDS011;38569;52.722;6.440;2023-02-11T05:26:52;49.80;;;23.73;;
52674;SDS011;38569;52.722;6.440;2023-02-11T05:29:18;55.42;;;26.83;;
52674;SDS011;38569;52.722;6.440;2023-02-11T05:31:44;46.28;;;25.88;;
52674;SDS011;38569;52.722;6.440;2023-02-11T05:34:10;46.63;;;26.90;;
52674;SDS011;38569;52.722;6.440;2023-02-11T05:36:35;45.63;;;25.33;;
52674;SDS011;38569;52.722;6.440;2023-02-11T05:39:01;45.88;;;25.45;;
52674;SDS011;38569;52.722;6.440;2023-02-11T05:41:27;55.58;;;25.88;;
52674;SDS011;38569;52.722;6.440;2023-02-11T05:43:53;43.85;;;25.98;;
52674;SDS011;38569;52.722;6.440;2023-02-11T05:46:18;47.70;;;27.08;;
52674;SDS011;38569;52.722;6.440;2023-02-11T05:48:44;47.08;;;26.42;;
52674;SDS011;38569;52.722;6.440;2023-02-11T05:51:10;52.00;;;26.77;;
52674;SDS011;38569;52.722;6.440;2023-02-11T05:53:35;50.03;;;25.80;;
52674;SDS011;38569;52.722;6.440;2023-02-11T05:56:01;47.58;;;25.35;;
52674;SDS011;38569;52.722;6.440;2023-02-11T05:58:27;48.88;;;27.42;;
52674;SDS011;38569;52.722;6.440;2023-02-11T06:00:53;48.95;;;25.98;;
52674;SDS011;38569;52.722;6.440;2023-02-11T06:03:19;52.38;;;26.60;;
52674;SDS011;38569;52.722;6.440;2023-02-11T06:05:44;48.47;;;25.80;;
52674;SDS011;38569;52.722;6.440;2023-02-11T06:08:10;41.00;;;25.02;;
52674;SDS011;38569;52.722;6.440;2023-02-11T06:10:37;49.95;;;26.65;;
52674;SDS011;38569;52.722;6.440;2023-02-11T06:13:02;49.50;;;28.17;;
52674;SDS011;38569;52.722;6.440;2023-02-11T06:15:28;51.65;;;26.52;;
52674;SDS011;38569;52.722;6.440;2023-02-11T06:17:55;49.50;;;26.65;;
52674;SDS011;38569;52.722;6.440;2023-02-11T06:20:20;49.58;;;25.48;;
52674;SDS011;38569;52.722;6.440;2023-02-11T06:22:46;49.92;;;25.88;;
52674;SDS011;38569;52.722;6.440;2023-02-11T06:25:12;48.83;;;24.55;;
52674;SDS011;38569;52.722;6.440;2023-02-11T06:27:39;50.63;;;24.70;;
52674;SDS011;38569;52.722;6.440;2023-02-11T06:30:05;50.28;;;25.42;;
52674;SDS011;38569;52.722;6.440;2023-02-11T06:32:32;57.53;;;26.92;;
52674;SDS011;38569;52.722;6.440;2023-02-11T06:34:57;51.47;;;25.80;;
52674;SDS011;38569;52.722;6.440;2023-02-11T06:37:23;46.15;;;24.08;;
52674;SDS011;38569;52.722;6.440;2023-02-11T06:39:49;49.42;;;25.67;;
52674;SDS011;38569;52.722;6.440;2023-02-11T06:42:15;45.50;;;25.60;;
52674;SDS011;38569;52.722;6.440;2023-02-11T06:44:40;45.38;;;25.73;;
52674;SDS011;38569;52.722;6.440;2023-02-11T06:47:06;48.38;;;24.75;;
52674;SDS011;38569;52.722;6.440;2023-02-11T06:49:32;47.78;;;26.08;;
52674;SDS011;38569;52.722;6.440;2023-02-11T06:51:57;51.13;;;26.65;;
52674;SDS011;38569;52.722;6.440;2023-02-11T06:54:23;46.17;;;25.30;;
52674;SDS011;38569;52.722;6.440;2023-02-11T06:56:49;48.63;;;25.08;;
52674;SDS011;38569;52.722;6.440;2023-02-11T06:59:16;45.42;;;25.83;;
52674;SDS011;38569;52.722;6.440;2023-02-11T07:01:45;54.75;;;27.67;;
52674;SDS011;38569;52.722;6.440;2023-02-11T07:04:11;43.90;;;24.98;;
52674;SDS011;38569;52.722;6.440;2023-02-11T07:06:38;52.05;;;28.38;;
52674;SDS011;38569;52.722;6.440;2023-02-11T07:09:05;42.92;;;25.75;;
52674;SDS011;38569;52.722;6.440;2023-02-11T07:11:31;45.85;;;26.90;;
52674;SDS011;38569;52.722;6.440;2023-02-11T07:14:05;46.22;;;25.60;;
52674;SDS011;38569;52.722;6.440;2023-02-11T07:16:34;48.05;;;28.00;;
52674;SDS011;38569;52.722;6.440;2023-02-11T07:19:00;63.90;;;27.90;;
52674;SDS011;38569;52.722;6.440;2023-02-11T07:21:26;55.15;;;26.30;;
52674;SDS011;38569;52.722;6.440;2023-02-11T07:23:52;42.80;;;25.13;;
52674;SDS011;38569;52.722;6.440;2023-02-11T07:26:19;50.25;;;27.60;;
52674;SDS011;38569;52.722;6.440;2023-02-11T07:28:47;50.80;;;29.10;;
52674;SDS011;38569;52.722;6.440;2023-02-11T07:31:15;52.20;;;28.13;;
52674;SDS011;38569;52.722;6.440;2023-02-11T07:33:46;48.25;;;25.83;;
52674;SDS011;38569;52.722;6.440;2023-02-11T07:36:12;54.58;;;29.13;;
52674;SDS011;38569;52.722;6.440;2023-02-11T07:38:39;46.03;;;28.98;;
52674;SDS011;38569;52.722;6.440;2023-02-11T07:41:06;52.90;;;28.20;;
52674;SDS011;38569;52.722;6.440;2023-02-11T07:43:34;46.90;;;27.00;;
52674;SDS011;38569;52.722;6.440;2023-02-11T07:46:02;51.00;;;27.77;;
52674;SDS011;38569;52.722;6.440;2023-02-11T07:48:32;47.33;;;27.63;;
52674;SDS011;38569;52.722;6.440;2023-02-11T07:51:20;45.97;;;26.17;;
52674;SDS011;38569;52.722;6.440;2023-02-11T07:53:47;53.17;;;28.15;;
52674;SDS011;38569;52.722;6.440;2023-02-11T07:56:14;54.38;;;27.42;;
52674;SDS011;38569;52.722;6.440;2023-02-11T07:58:41;55.65;;;26.70;;
52674;SDS011;38569;52.722;6.440;2023-02-11T08:01:08;48.55;;;27.35;;
52674;SDS011;38569;52.722;6.440;2023-02-11T08:03:36;42.67;;;27.23;;
52674;SDS011;38569;52.722;6.440;2023-02-11T08:06:04;47.88;;;27.85;;
52674;SDS011;38569;52.722;6.440;2023-02-11T08:08:32;49.95;;;27.48;;
52674;SDS011;38569;52.722;6.440;2023-02-11T08:11:00;47.15;;;26.33;;
52674;SDS011;38569;52.722;6.440;2023-02-11T08:13:32;45.53;;;25.10;;
52674;SDS011;38569;52.722;6.440;2023-02-11T08:15:58;49.63;;;25.27;;
52674;SDS011;38569;52.722;6.440;2023-02-11T08:18:24;52.08;;;26.80;;
52674;SDS011;38569;52.722;6.440;2023-02-11T08:20:50;44.15;;;24.35;;
52674;SDS011;38569;52.722;6.440;2023-02-11T08:23:15;49.38;;;26.02;;
52674;SDS011;38569;52.722;6.440;2023-02-11T08:25:41;44.92;;;24.52;;
52674;SDS011;38569;52.722;6.440;2023-02-11T08:28:07;45.17;;;25.10;;
52674;SDS011;38569;52.722;6.440;2023-02-11T08:30:33;41.60;;;23.55;;
52674;SDS011;38569;52.722;6.440;2023-02-11T08:32:59;39.00;;;24.38;;
52674;SDS011;38569;52.722;6.440;2023-02-11T08:35:25;55.50;;;25.25;;
52674;SDS011;38569;52.722;6.440;2023-02-11T08:37:51;38.55;;;24.42;;
52674;SDS011;38569;52.722;6.440;2023-02-11T08:40:17;41.47;;;24.85;;
52674;SDS011;38569;52.722;6.440;2023-02-11T08:42:43;44.15;;;24.27;;
52674;SDS011;38569;52.722;6.440;2023-02-11T08:45:11;37.25;;;21.92;;
52674;SDS011;38569;52.722;6.440;2023-02-11T08:47:37;41.25;;;23.20;;
52674;SDS011;38569;52.722;6.440;2023-02-11T08:50:04;46.00;;;23.38;;
52674;SDS011;38569;52.722;6.440;2023-02-11T08:52:30;45.17;;;22.40;;
52674;SDS011;38569;52.722;6.440;2023-02-11T08:54:55;41.40;;;22.55;;
52674;SDS011;38569;52.722;6.440;2023-02-11T08:57:21;37.22;;;22.15;;
52674;SDS011;38569;52.722;6.440;2023-02-11T08:59:47;41.05;;;22.23;;
52674;SDS011;38569;52.722;6.440;2023-02-11T09:02:13;37.03;;;21.73;;
52674;SDS011;38569;52.722;6.440;2023-02-11T09:04:39;35.85;;;20.38;;
52674;SDS011;38569;52.722;6.440;2023-02-11T09:07:05;45.53;;;22.63;;
52674;SDS011;38569;52.722;6.440;2023-02-11T09:09:32;41.58;;;23.17;;
52674;SDS011;38569;52.722;6.440;2023-02-11T09:11:58;34.55;;;21.48;;
52674;SDS011;38569;52.722;6.440;2023-02-11T09:14:25;31.83;;;19.40;;
52674;SDS011;38569;52.722;6.440;2023-02-11T09:16:52;37.30;;;20.45;;
52674;SDS011;38569;52.722;6.440;2023-02-11T09:19:18;39.83;;;19.98;;
52674;SDS011;38569;52.722;6.440;2023-02-11T09:21:44;30.27;;;19.45;;
52674;SDS011;38569;52.722;6.440;2023-02-11T09:24:10;34.72;;;18.38;;
52674;SDS011;38569;52.722;6.440;2023-02-11T09:26:36;30.30;;;18.55;;
52674;SDS011;38569;52.722;6.440;2023-02-11T09:29:03;27.92;;;18.65;;
52674;SDS011;38569;52.722;6.440;2023-02-11T09:31:30;31.02;;;17.45;;
52674;SDS011;38569;52.722;6.440;2023-02-11T09:33:58;25.40;;;16.80;;
52674;SDS011;38569;52.722;6.440;2023-02-11T09:36:30;27.90;;;15.95;;
52674;SDS011;38569;52.722;6.440;2023-02-11T09:38:58;29.88;;;15.13;;
52674;SDS011;38569;52.722;6.440;2023-02-11T09:41:34;29.45;;;15.55;;
52674;SDS011;38569;52.722;6.440;2023-02-11T09:44:30;26.40;;;16.48;;
52674;SDS011;38569;52.722;6.440;2023-02-11T09:47:02;29.75;;;14.98;;
52674;SDS011;38569;52.722;6.440;2023-02-11T09:49:49;30.35;;;16.05;;
52674;SDS011;38569;52.722;6.440;2023-02-11T09:55:00;28.00;;;14.13;;
52674;SDS011;38569;52.722;6.440;2023-02-11T09:57:32;23.50;;;14.52;;
52674;SDS011;38569;52.722;6.440;2023-02-11T10:00:00;22.33;;;13.48;;
52674;SDS011;38569;52.722;6.440;2023-02-11T10:02:53;24.83;;;13.23;;
52674;SDS011;38569;52.722;6.440;2023-02-11T10:05:36;23.17;;;13.13;;
52674;SDS011;38569;52.722;6.440;2023-02-11T10:08:40;26.15;;;12.70;;
52674;SDS011;38569;52.722;6.440;2023-02-11T10:11:14;25.02;;;14.10;;
52674;SDS011;38569;52.722;6.440;2023-02-11T10:14:00;19.63;;;11.93;;
52674;SDS011;38569;52.722;6.440;2023-02-11T10:24:27;16.50;;;11.13;;
52674;SDS011;38569;52.722;6.440;2023-02-11T10:26:53;23.10;;;13.68;;
52674;SDS011;38569;52.722;6.440;2023-02-11T10:29:40;23.10;;;12.63;;
52674;SDS011;38569;52.722;6.440;2023-02-11T10:35:00;23.88;;;13.48;;
52674;SDS011;38569;52.722;6.440;2023-02-11T10:37:28;20.95;;;12.73;;
52674;SDS011;38569;52.722;6.440;2023-02-11T10:39:54;24.27;;;12.63;;
52674;SDS011;38569;52.722;6.440;2023-02-11T10:42:20;28.73;;;12.70;;
52674;SDS011;38569;52.722;6.440;2023-02-11T10:44:52;24.30;;;11.63;;
52674;SDS011;38569;52.722;6.440;2023-02-11T10:47:26;18.92;;;10.18;;
52674;SDS011;38569;52.722;6.440;2023-02-11T10:49:54;22.10;;;12.13;;
52674;SDS011;38569;52.722;6.440;2023-02-11T10:52:27;22.10;;;11.85;;
52674;SDS011;38569;52.722;6.440;2023-02-11T10:54:55;23.60;;;11.95;;
52674;SDS011;38569;52.722;6.440;2023-02-11T10:57:29;21.17;;;11.68;;
52674;SDS011;38569;52.722;6.440;2023-02-11T11:00:49;27.25;;;12.38;;
52674;SDS011;38569;52.722;6.440;2023-02-11T11:02:58;19.20;;;12.30;;
52674;SDS011;38569;52.722;6.440;2023-02-11T11:05:35;20.75;;;11.48;;
52674;SDS011;38569;52.722;6.440;2023-02-11T11:08:10;18.15;;;11.18;;
52674;SDS011;38569;52.722;6.440;2023-02-11T11:14:12;18.02;;;10.93;;
52674;SDS011;38569;52.722;6.440;2023-02-11T11:16:28;21.13;;;10.65;;
52674;SDS011;38569;52.722;6.440;2023-02-11T11:24:31;16.33;;;10.32;;
52674;SDS011;38569;52.722;6.440;2023-02-11T11:27:04;23.90;;;10.97;;
52674;SDS011;38569;52.722;6.440;2023-02-11T11:29:35;20.05;;;10.52;;
52674;SDS011;38569;52.722;6.440;2023-02-11T11:34:52;18.88;;;10.70;;
52674;SDS011;38569;52.722;6.440;2023-02-11T11:37:25;22.25;;;11.10;;
52674;SDS011;38569;52.722;6.440;2023-02-11T11:42:31;18.27;;;9.93;;
52674;SDS011;38569;52.722;6.440;2023-02-11T11:45:50;20.80;;;10.65;;
52674;SDS011;38569;52.722;6.440;2023-02-11T11:47:55;18.45;;;9.55;;
52674;SDS011;38569;52.722;6.440;2023-02-11T11:50:39;21.58;;;9.88;;
52674;SDS011;38569;52.722;6.440;2023-02-11T11:53:15;22.10;;;9.75;;
52674;SDS011;38569;52.722;6.440;2023-02-11T11:55:51;16.55;;;9.60;;
52674;SDS011;38569;52.722;6.440;2023-02-11T11:58:29;14.98;;;9.13;;
52674;SDS011;38569;52.722;6.440;2023-02-11T12:09:23;16.92;;;9.25;;
52674;SDS011;38569;52.722;6.440;2023-02-11T12:17:21;12.10;;;6.85;;
52674;SDS011;38569;52.722;6.440;2023-02-11T12:20:24;14.52;;;8.77;;
52674;SDS011;38569;52.722;6.440;2023-02-11T12:25:46;18.27;;;8.20;;
52674;SDS011;38569;52.722;6.440;2023-02-11T12:33:58;15.13;;;7.93;;
52674;SDS011;38569;52.722;6.440;2023-02-11T12:39:34;16.27;;;7.38;;
52674;SDS011;38569;52.722;6.440;2023-02-11T12:42:15;14.52;;;7.80;;
52674;SDS011;38569;52.722;6.440;2023-02-11T12:55:29;14.38;;;5.72;;
52674;SDS011;38569;52.722;6.440;2023-02-11T12:58:02;17.42;;;5.82;;
52674;SDS011;38569;52.722;6.440;2023-02-11T13:00:37;12.77;;;5.30;;
52674;SDS011;38569;52.722;6.440;2023-02-11T13:03:11;12.60;;;4.70;;
52674;SDS011;38569;52.722;6.440;2023-02-11T13:05:54;8.88;;;4.65;;
52674;SDS011;38569;52.722;6.440;2023-02-11T13:10:55;11.25;;;4.60;;
52674;SDS011;38569;52.722;6.440;2023-02-11T13:16:42;14.73;;;4.88;;
52674;SDS011;38569;52.722;6.440;2023-02-11T13:38:04;14.00;;;4.97;;
52674;SDS011;38569;52.722;6.440;2023-02-11T13:40:41;13.80;;;6.35;;
52674;SDS011;38569;52.722;6.440;2023-02-11T13:43:18;9.38;;;3.90;;
52674;SDS011;38569;52.722;6.440;2023-02-11T13:45:47;12.88;;;4.40;;
52674;SDS011;38569;52.722;6.440;2023-02-11T13:48:22;14.55;;;4.85;;
52674;SDS011;38569;52.722;6.440;2023-02-11T13:50:54;11.23;;;4.50;;
52674;SDS011;38569;52.722;6.440;2023-02-11T13:53:25;12.27;;;4.22;;
52674;SDS011;38569;52.722;6.440;2023-02-11T13:55:53;18.48;;;4.30;;
52674;SDS011;38569;52.722;6.440;2023-02-11T13:58:32;15.85;;;4.80;;
52674;SDS011;38569;52.722;6.440;2023-02-11T14:01:01;17.98;;;5.22;;
52674;SDS011;38569;52.722;6.440;2023-02-11T14:03:31;16.35;;;5.45;;
52674;SDS011;38569;52.722;6.440;2023-02-11T14:06:22;16.33;;;5.82;;
52674;SDS011;38569;52.722;6.440;2023-02-11T14:09:38;17.58;;;4.88;;
52674;SDS011;38569;52.722;6.440;2023-02-11T14:12:24;13.77;;;4.13;;
52674;SDS011;38569;52.722;6.440;2023-02-11T14:17:31;8.18;;;3.72;;
52674;SDS011;38569;52.722;6.440;2023-02-11T14:19:58;12.45;;;3.33;;
52674;SDS011;38569;52.722;6.440;2023-02-11T14:22:27;18.40;;;4.53;;
52674;SDS011;38569;52.722;6.440;2023-02-11T14:25:15;10.75;;;4.78;;
52674;SDS011;38569;52.722;6.440;2023-02-11T14:27:51;13.10;;;4.17;;
52674;SDS011;38569;52.722;6.440;2023-02-11T14:30:35;11.70;;;3.53;;
52674;SDS011;38569;52.722;6.440;2023-02-11T14:33:26;11.43;;;3.88;;
52674;SDS011;38569;52.722;6.440;2023-02-11T14:38:51;13.63;;;3.05;;
52674;SDS011;38569;52.722;6.440;2023-02-11T14:43:57;14.07;;;3.00;;
52674;SDS011;38569;52.722;6.440;2023-02-11T14:46:25;14.27;;;3.17;;
52674;SDS011;38569;52.722;6.440;2023-02-11T14:48:56;8.02;;;3.55;;
52674;SDS011;38569;52.722;6.440;2023-02-11T14:53:52;11.65;;;4.15;;
52674;SDS011;38569;52.722;6.440;2023-02-11T14:56:22;12.25;;;3.75;;
52674;SDS011;38569;52.722;6.440;2023-02-11T14:58:50;9.93;;;4.22;;
52674;SDS011;38569;52.722;6.440;2023-02-11T15:04:28;16.88;;;3.60;;
52674;SDS011;38569;52.722;6.440;2023-02-11T15:06:56;9.13;;;3.15;;
52674;SDS011;38569;52.722;6.440;2023-02-11T15:09:38;10.80;;;3.10;;
52674;SDS011;38569;52.722;6.440;2023-02-11T15:12:18;12.93;;;3.13;;
52674;SDS011;38569;52.722;6.440;2023-02-11T15:14:48;13.52;;;3.90;;
52674;SDS011;38569;52.722;6.440;2023-02-11T15:17:18;9.30;;;3.08;;
52674;SDS011;38569;52.722;6.440;2023-02-11T15:19:48;15.77;;;3.67;;
52674;SDS011;38569;52.722;6.440;2023-02-11T15:25:23;9.98;;;3.08;;
52674;SDS011;38569;52.722;6.440;2023-02-11T15:27:48;11.50;;;5.40;;
52674;SDS011;38569;52.722;6.440;2023-02-11T15:32:52;6.28;;;2.55;;
52674;SDS011;38569;52.722;6.440;2023-02-11T15:35:24;11.45;;;3.08;;
52674;SDS011;38569;52.722;6.440;2023-02-11T15:37:57;10.48;;;3.50;;
52674;SDS011;38569;52.722;6.440;2023-02-11T15:40:29;13.30;;;4.28;;
52674;SDS011;38569;52.722;6.440;2023-02-11T15:43:04;13.23;;;3.28;;
52674;SDS011;38569;52.722;6.440;2023-02-11T15:48:10;12.85;;;3.60;;
52674;SDS011;38569;52.722;6.440;2023-02-11T15:50:42;8.68;;;3.40;;
52674;SDS011;38569;52.722;6.440;2023-02-11T15:55:43;9.60;;;4.07;;
52674;SDS011;38569;52.722;6.440;2023-02-11T15:58:10;11.70;;;4.47;;
52674;SDS011;38569;52.722;6.440;2023-02-11T16:00:37;14.50;;;3.85;;
52674;SDS011;38569;52.722;6.440;2023-02-11T16:03:26;14.70;;;3.53;;
52674;SDS011;38569;52.722;6.440;2023-02-11T16:05:56;12.57;;;4.38;;
52674;SDS011;38569;52.722;6.440;2023-02-11T16:08:41;10.77;;;3.90;;
52674;SDS011;38569;52.722;6.440;2023-02-11T16:11:26;12.18;;;5.55;;
52674;SDS011;38569;52.722;6.440;2023-02-11T16:13:58;12.63;;;3.60;;
52674;SDS011;38569;52.722;6.440;2023-02-11T16:16:26;11.38;;;4.05;;
52674;SDS011;38569;52.722;6.440;2023-02-11T16:19:00;14.48;;;3.83;;
52674;SDS011;38569;52.722;6.440;2023-02-11T16:21:30;15.50;;;3.42;;
52674;SDS011;38569;52.722;6.440;2023-02-11T16:24:03;13.90;;;3.60;;
52674;SDS011;38569;52.722;6.440;2023-02-11T16:26:32;12.13;;;3.50;;
52674;SDS011;38569;52.722;6.440;2023-02-11T16:29:12;9.90;;;3.80;;
52674;SDS011;38569;52.722;6.440;2023-02-11T16:31:42;13.10;;;4.00;;
52674;SDS011;38569;52.722;6.440;2023-02-11T16:36:46;11.10;;;3.63;;
52674;SDS011;38569;52.722;6.440;2023-02-11T16:39:12;11.18;;;3.55;;
52674;SDS011;38569;52.722;6.440;2023-02-11T16:41:39;11.68;;;3.42;;
52674;SDS011;38569;52.722;6.440;2023-02-11T16:44:05;9.98;;;3.45;;
52674;SDS011;38569;52.722;6.440;2023-02-11T16:46:30;20.60;;;5.22;;
52674;SDS011;38569;52.722;6.440;2023-02-11T16:48:56;17.23;;;5.30;;
52674;SDS011;38569;52.722;6.440;2023-02-11T16:51:28;12.68;;;4.88;;
52674;SDS011;38569;52.722;6.440;2023-02-11T16:53:53;11.73;;;5.20;;
52674;SDS011;38569;52.722;6.440;2023-02-11T16:56:19;18.65;;;5.00;;
52674;SDS011;38569;52.722;6.440;2023-02-11T16:58:45;15.98;;;5.38;;
52674;SDS011;38569;52.722;6.440;2023-02-11T17:01:10;13.18;;;4.63;;
52674;SDS011;38569;52.722;6.440;2023-02-11T17:03:37;17.13;;;5.28;;
52674;SDS011;38569;52.722;6.440;2023-02-11T17:06:05;21.50;;;5.95;;
52674;SDS011;38569;52.722;6.440;2023-02-11T17:08:33;17.08;;;5.50;;